createdAt,value
2023-01-08T00:02:17.941Z,86.90
2023-01-08T00:04:44.817Z,84.05
2023-01-08T00:07:11.448Z,83.63
2023-01-08T00:09:38.336Z,87.78
2023-01-08T00:12:04.947Z,81.68
2023-01-08T00:14:31.631Z,80.30
2023-01-08T00:16:58.651Z,76.97
2023-01-08T00:19:25.513Z,73.55
2023-01-08T00:21:52.208Z,75.55
2023-01-08T00:24:18.744Z,75.50
2023-01-08T00:26:45.975Z,73.93
2023-01-08T00:29:12.393Z,71.57
2023-01-08T00:31:39.383Z,73.55
2023-01-08T00:34:05.989Z,67.65
2023-01-08T00:36:32.625Z,68.53
2023-01-08T00:38:59.052Z,68.15
2023-01-08T00:41:25.509Z,66.95
2023-01-08T00:43:52.154Z,64.82
2023-01-08T00:46:19.284Z,64.60
2023-01-08T00:48:46.781Z,62.83
2023-01-08T00:51:13.367Z,63.65
2023-01-08T00:53:39.977Z,62.83
2023-01-08T00:56:07.133Z,60.22
2023-01-08T00:58:33.834Z,60.55
2023-01-08T01:01:00.433Z,59.10
2023-01-08T01:03:27.176Z,58.17
2023-01-08T01:05:53.687Z,57.60
2023-01-08T01:08:20.079Z,55.10
2023-01-08T01:10:46.547Z,54.92
2023-01-08T01:13:13.430Z,52.35
2023-01-08T01:15:39.919Z,53.90
2023-01-08T01:18:07.233Z,53.25
2023-01-08T01:20:33.673Z,53.50
2023-01-08T01:23:00.339Z,51.80
2023-01-08T01:25:27.350Z,52.08
2023-01-08T01:27:54.250Z,47.95
2023-01-08T01:30:21.030Z,48.10
2023-01-08T01:32:47.727Z,47.80
2023-01-08T01:35:14.113Z,46.45
2023-01-08T01:37:41.073Z,47.00
2023-01-08T01:40:08.796Z,47.08
2023-01-08T01:42:36.126Z,44.50
2023-01-08T01:45:03.009Z,44.55
2023-01-08T01:47:29.677Z,42.97
2023-01-08T01:49:56.061Z,44.95
2023-01-08T01:52:22.728Z,43.10
2023-01-08T01:54:49.178Z,43.33
2023-01-08T01:57:15.820Z,41.78
2023-01-08T01:59:42.351Z,41.72
2023-01-08T02:02:08.988Z,40.60
2023-01-08T02:04:36.217Z,42.10
2023-01-08T02:07:02.832Z,38.78
2023-01-08T02:09:30.826Z,37.47
2023-01-08T02:11:57.506Z,37.72
2023-01-08T02:14:24.414Z,38.53
2023-01-08T02:16:50.853Z,36.65
2023-01-08T02:19:17.870Z,37.03
2023-01-08T02:21:44.612Z,35.67
2023-01-08T02:24:11.200Z,35.50
2023-01-08T02:26:37.947Z,35.17
2023-01-08T02:29:04.658Z,34.80
2023-01-08T02:31:31.205Z,34.03
2023-01-08T02:33:57.852Z,32.15
2023-01-08T02:36:24.381Z,34.08
2023-01-08T02:38:50.921Z,33.10
2023-01-08T02:41:17.194Z,32.50
2023-01-08T02:43:44.150Z,31.75
2023-01-08T02:46:10.530Z,32.88
2023-01-08T02:48:36.969Z,31.30
2023-01-08T02:51:03.482Z,31.40
2023-01-08T02:53:30.177Z,30.35
2023-01-08T02:55:56.778Z,29.88
2023-01-08T02:58:23.491Z,30.00
2023-01-08T03:00:50.150Z,28.05
2023-01-08T03:03:16.960Z,28.35
2023-01-08T03:05:43.319Z,28.63
2023-01-08T03:08:09.688Z,27.85
2023-01-08T03:10:36.996Z,27.98
2023-01-08T03:13:03.484Z,26.70
2023-01-08T03:15:30.383Z,26.13
2023-01-08T03:17:57.999Z,26.92
2023-01-08T03:20:25.229Z,26.52
2023-01-08T03:22:52.203Z,25.77
2023-01-08T03:25:19.234Z,26.10
2023-01-08T03:27:46.225Z,25.77
2023-01-08T03:30:12.564Z,24.70
2023-01-08T03:32:39.388Z,24.30
2023-01-08T03:35:05.802Z,23.95
2023-01-08T03:37:32.649Z,22.52
2023-01-08T03:39:59.277Z,24.00
2023-01-08T03:42:26.105Z,23.17
2023-01-08T03:44:52.513Z,23.35
2023-01-08T03:47:18.836Z,22.80
2023-01-08T03:49:45.184Z,22.33
2023-01-08T03:52:11.573Z,22.65
2023-01-08T03:54:38.032Z,21.42
2023-01-08T03:57:04.679Z,21.80
2023-01-08T03:59:31.148Z,20.65
2023-01-08T04:01:57.784Z,20.95
2023-01-08T04:04:25.945Z,20.40
2023-01-08T04:06:53.116Z,20.85
2023-01-08T04:09:20.999Z,19.50
2023-01-08T04:11:48.387Z,19.92
2023-01-08T04:14:16.808Z,19.48
2023-01-08T04:16:43.705Z,19.00
2023-01-08T04:19:12.095Z,19.35
2023-01-08T04:21:39.733Z,19.40
2023-01-08T04:24:07.264Z,20.42
2023-01-08T04:26:34.477Z,18.27
2023-01-08T04:29:02.234Z,18.20
2023-01-08T04:31:29.875Z,18.25
2023-01-08T04:33:57.002Z,18.98
2023-01-08T04:36:23.738Z,18.90
2023-01-08T04:38:50.442Z,17.77
2023-01-08T04:41:17.043Z,16.50
2023-01-08T04:43:43.745Z,16.88
2023-01-08T04:46:10.271Z,17.52
2023-01-08T04:48:36.913Z,17.33
2023-01-08T04:51:04.085Z,16.60
2023-01-08T04:53:30.450Z,15.90
2023-01-08T04:55:57.410Z,16.63
2023-01-08T04:58:24.167Z,16.23
2023-01-08T05:00:50.583Z,15.38
2023-01-08T05:03:17.460Z,15.75
2023-01-08T05:05:44.580Z,15.73
2023-01-08T05:08:11.182Z,16.95
2023-01-08T05:10:37.605Z,15.38
2023-01-08T05:13:04.616Z,15.57
2023-01-08T05:15:31.044Z,15.45
2023-01-08T05:17:57.777Z,15.52
2023-01-08T05:20:25.235Z,13.75
2023-01-08T05:22:52.197Z,14.30
2023-01-08T05:25:18.823Z,14.32
2023-01-08T05:27:45.772Z,13.73
2023-01-08T05:30:12.076Z,14.02
2023-01-08T05:32:38.931Z,14.00
2023-01-08T05:35:06.216Z,13.50
2023-01-08T05:37:32.577Z,14.25
2023-01-08T05:39:59.678Z,14.70
2023-01-08T05:42:26.201Z,13.63
2023-01-08T05:44:52.575Z,13.43
2023-01-08T05:47:19.353Z,13.73
2023-01-08T05:49:45.919Z,14.98
2023-01-08T05:52:12.737Z,12.85
2023-01-08T05:54:39.668Z,13.80
2023-01-08T05:57:06.711Z,13.23
2023-01-08T05:59:33.455Z,13.02
2023-01-08T06:02:00.225Z,12.98
2023-01-08T06:04:26.846Z,12.77
2023-01-08T06:06:53.596Z,13.52
2023-01-08T06:09:19.946Z,12.90
2023-01-08T06:11:46.904Z,13.45
2023-01-08T06:14:13.506Z,13.07
2023-01-08T06:16:39.861Z,12.77
2023-01-08T06:19:06.282Z,12.23
2023-01-08T06:21:32.840Z,11.60
2023-01-08T06:23:59.166Z,11.98
2023-01-08T06:26:25.574Z,11.25
2023-01-08T06:28:52.000Z,13.35
2023-01-08T06:31:18.458Z,12.30
2023-01-08T06:33:45.267Z,11.35
2023-01-08T06:36:11.785Z,12.82
2023-01-08T06:38:38.568Z,11.75
2023-01-08T06:41:05.196Z,13.23
2023-01-08T06:43:31.738Z,11.10
2023-01-08T06:45:58.293Z,10.82
2023-01-08T06:48:25.402Z,11.55
2023-01-08T06:50:52.441Z,11.05
2023-01-08T06:53:18.893Z,11.13
2023-01-08T06:55:45.434Z,11.05
2023-01-08T06:58:11.786Z,12.05
2023-01-08T07:00:38.120Z,11.63
2023-01-08T07:03:04.811Z,10.88
2023-01-08T07:05:31.637Z,12.27
2023-01-08T07:07:58.339Z,10.73
2023-01-08T07:10:25.127Z,10.85
2023-01-08T07:12:51.583Z,10.82
2023-01-08T07:15:18.296Z,10.95
2023-01-08T07:17:44.807Z,10.85
2023-01-08T07:20:11.166Z,10.43
2023-01-08T07:22:37.563Z,10.88
2023-01-08T07:25:03.980Z,11.60
2023-01-08T07:27:30.463Z,11.75
2023-01-08T07:29:57.001Z,9.65
2023-01-08T07:32:23.497Z,10.30
2023-01-08T07:34:50.156Z,12.60
2023-01-08T07:37:16.655Z,11.88
2023-01-08T07:39:43.196Z,10.80
2023-01-08T07:42:10.081Z,10.57
2023-01-08T07:44:36.721Z,9.15
2023-01-08T07:47:03.868Z,9.63
2023-01-08T07:49:30.454Z,10.27
2023-01-08T07:51:57.535Z,10.45
2023-01-08T07:54:24.506Z,9.52
2023-01-08T07:56:51.361Z,10.02
2023-01-08T07:59:17.977Z,10.75
2023-01-08T08:01:44.652Z,10.70
2023-01-08T08:04:11.278Z,9.60
2023-01-08T08:06:37.820Z,9.85
2023-01-08T08:09:04.622Z,10.00
2023-01-08T08:11:31.062Z,9.77
2023-01-08T08:13:58.177Z,9.27
2023-01-08T08:16:24.779Z,9.32
2023-01-08T08:18:51.265Z,9.45
2023-01-08T08:21:18.094Z,8.88
2023-01-08T08:23:44.745Z,9.38
2023-01-08T08:26:11.561Z,10.10
2023-01-08T08:28:38.314Z,9.30
2023-01-08T08:31:04.651Z,9.73
2023-01-08T08:33:31.723Z,8.95
2023-01-08T08:35:58.291Z,9.50
2023-01-08T08:38:24.669Z,10.07
2023-01-08T08:40:51.818Z,9.10
2023-01-08T08:43:18.532Z,8.55
2023-01-08T08:45:46.241Z,9.63
2023-01-08T08:48:13.399Z,10.05
2023-01-08T08:50:39.803Z,8.82
2023-01-08T08:53:06.322Z,8.55
2023-01-08T08:55:32.848Z,10.07
2023-01-08T08:57:59.688Z,18.42
2023-01-08T09:00:26.467Z,14.27
2023-01-08T09:02:53.419Z,15.68
2023-01-08T09:05:19.959Z,16.15
2023-01-08T09:07:46.720Z,22.85
2023-01-08T09:10:13.066Z,158.38
2023-01-08T09:12:39.521Z,220.15
2023-01-08T09:15:06.573Z,219.48
2023-01-08T09:17:33.331Z,192.95
2023-01-08T09:20:00.313Z,175.02
2023-01-08T09:22:27.111Z,160.80
2023-01-08T09:24:53.456Z,136.25
2023-01-08T09:27:19.978Z,133.30
2023-01-08T09:29:46.969Z,119.22
2023-01-08T09:32:13.645Z,117.78
2023-01-08T09:34:39.896Z,187.52
2023-01-08T09:37:06.387Z,224.63
2023-01-08T09:39:33.653Z,250.50
2023-01-08T09:42:00.311Z,234.10
2023-01-08T09:44:26.902Z,209.85
2023-01-08T09:46:53.839Z,192.77
2023-01-08T09:49:20.505Z,168.93
2023-01-08T09:51:48.467Z,152.43
2023-01-08T09:54:15.324Z,131.45
2023-01-08T09:56:41.670Z,118.30
2023-01-08T09:59:08.076Z,101.15
2023-01-08T10:01:34.657Z,98.00
2023-01-08T10:04:01.440Z,91.40
2023-01-08T10:06:28.303Z,83.63
2023-01-08T10:08:55.559Z,79.07
2023-01-08T10:11:22.710Z,131.35
2023-01-08T10:13:49.116Z,229.85
2023-01-08T10:16:15.891Z,200.68
2023-01-08T10:18:42.371Z,184.43
2023-01-08T10:21:09.156Z,173.18
2023-01-08T10:23:35.774Z,165.07
2023-01-08T10:26:02.484Z,153.07
2023-01-08T10:28:28.989Z,137.18
2023-01-08T10:30:55.323Z,122.07
2023-01-08T10:33:22.218Z,103.97
2023-01-08T10:35:48.657Z,101.10
2023-01-08T10:38:15.378Z,91.63
2023-01-08T10:40:42.003Z,88.25
2023-01-08T10:43:08.306Z,83.47
2023-01-08T10:45:34.907Z,81.85
2023-01-08T10:48:01.557Z,74.72
2023-01-08T10:50:28.007Z,268.65
2023-01-08T10:52:54.429Z,152.32
2023-01-08T10:55:21.095Z,159.27
2023-01-08T10:57:47.807Z,195.15
2023-01-08T11:00:14.358Z,172.63
2023-01-08T11:02:40.711Z,159.10
2023-01-08T11:05:07.590Z,152.23
2023-01-08T11:07:34.134Z,143.80
2023-01-08T11:10:00.792Z,135.73
2023-01-08T11:12:27.155Z,130.23
2023-01-08T11:14:53.604Z,127.47
2023-01-08T11:17:19.974Z,117.75
2023-01-08T11:19:46.571Z,110.53
2023-01-08T11:22:13.298Z,102.07
2023-01-08T11:24:39.892Z,180.57
2023-01-08T11:27:06.320Z,218.00
2023-01-08T11:29:33.000Z,190.07
2023-01-08T11:31:59.528Z,170.93
2023-01-08T11:34:26.279Z,196.35
2023-01-08T11:36:53.095Z,237.10
2023-01-08T11:39:19.483Z,263.98
2023-01-08T11:41:46.230Z,275.40
2023-01-08T11:44:12.618Z,258.92
2023-01-08T11:46:39.537Z,241.10
2023-01-08T11:49:05.880Z,202.63
2023-01-08T11:51:32.610Z,211.60
2023-01-08T11:53:59.107Z,182.77
2023-01-08T11:56:25.490Z,160.52
2023-01-08T11:58:51.935Z,146.32
2023-01-08T12:01:18.550Z,129.55
2023-01-08T12:03:45.065Z,113.88
2023-01-08T12:06:11.428Z,173.45
2023-01-08T12:08:37.872Z,228.40
2023-01-08T12:11:04.891Z,234.88
2023-01-08T12:13:31.348Z,219.00
2023-01-08T12:15:57.969Z,204.93
2023-01-08T12:18:24.337Z,189.30
2023-01-08T12:20:50.751Z,177.20
2023-01-08T12:23:17.682Z,165.82
2023-01-08T12:25:44.250Z,156.70
2023-01-08T12:28:10.902Z,148.90
2023-01-08T12:30:37.590Z,136.18
2023-01-08T12:33:04.110Z,129.20
2023-01-08T12:35:30.688Z,127.60
2023-01-08T12:37:57.230Z,118.13
2023-01-08T12:40:24.042Z,117.80
2023-01-08T12:43:00.310Z,214.35
2023-01-08T12:45:27.482Z,212.25
2023-01-08T12:47:54.235Z,190.45
2023-01-08T12:50:20.755Z,178.48
2023-01-08T12:52:47.715Z,168.23
2023-01-08T12:55:14.206Z,156.63
2023-01-08T12:57:40.720Z,150.65
2023-01-08T13:00:07.232Z,140.50
2023-01-08T13:02:34.250Z,131.73
2023-01-08T13:05:00.644Z,127.32
2023-01-08T13:07:27.678Z,121.85
2023-01-08T13:09:54.095Z,116.70
2023-01-08T13:12:21.846Z,104.93
2023-01-08T13:14:49.846Z,105.55
2023-01-08T13:17:16.636Z,137.15
2023-01-08T13:19:43.472Z,244.27
2023-01-08T13:22:10.137Z,221.30
2023-01-08T13:24:39.152Z,208.93
2023-01-08T13:27:05.868Z,189.50
2023-01-08T13:29:32.785Z,178.70
2023-01-08T13:31:59.529Z,166.77
2023-01-08T13:34:25.992Z,161.63
2023-01-08T13:36:53.413Z,149.30
2023-01-08T13:42:07.560Z,138.27
2023-01-08T13:44:34.189Z,126.15
2023-01-08T13:47:00.754Z,123.70
2023-01-08T13:49:27.777Z,117.75
2023-01-08T13:51:54.335Z,110.05
2023-01-08T13:54:21.148Z,103.60
2023-01-08T13:56:48.708Z,190.73
2023-01-08T13:59:15.534Z,309.48
2023-01-08T14:01:43.552Z,268.08
2023-01-08T14:04:10.738Z,250.48
2023-01-08T14:06:37.363Z,238.85
2023-01-08T14:09:03.923Z,248.63
2023-01-08T14:11:30.945Z,225.73
2023-01-08T14:14:01.817Z,212.82
2023-01-08T14:16:28.803Z,203.90
2023-01-08T14:18:55.461Z,210.18
2023-01-08T14:21:22.479Z,196.15
2023-01-08T14:23:49.411Z,190.07
2023-01-08T14:26:16.274Z,195.82
2023-01-08T14:28:42.775Z,186.43
2023-01-08T14:31:09.684Z,189.60
2023-01-08T14:33:36.001Z,180.90
2023-01-08T14:36:02.346Z,175.40
2023-01-08T14:38:29.169Z,181.07
2023-01-08T14:40:55.528Z,169.52
2023-01-08T14:43:22.059Z,165.63
2023-01-08T14:45:48.841Z,167.07
2023-01-08T14:48:15.411Z,168.82
2023-01-08T14:50:41.845Z,161.15
2023-01-08T14:53:08.381Z,159.18
2023-01-08T14:55:35.220Z,157.57
2023-01-08T14:58:01.756Z,157.43
2023-01-08T15:00:28.389Z,148.85
2023-01-08T15:02:54.858Z,147.45
2023-01-08T15:05:21.850Z,147.55
2023-01-08T15:07:49.008Z,145.13
2023-01-08T15:10:15.601Z,143.90
2023-01-08T15:12:42.088Z,139.98
2023-01-08T15:15:09.048Z,141.73
2023-01-08T15:17:35.567Z,134.45
2023-01-08T15:20:02.022Z,134.45
2023-01-08T15:22:28.447Z,131.55
2023-01-08T15:24:55.474Z,130.32
2023-01-08T15:27:21.945Z,125.72
2023-01-08T15:29:48.372Z,123.57
2023-01-08T15:32:15.349Z,122.13
2023-01-08T15:34:41.747Z,120.05
2023-01-08T15:37:08.508Z,120.63
2023-01-08T15:39:35.019Z,119.32
2023-01-08T15:42:01.590Z,114.68
2023-01-08T15:44:28.035Z,110.15
2023-01-08T15:46:54.616Z,109.95
2023-01-08T15:49:21.078Z,108.35
2023-01-08T15:51:47.712Z,107.10
2023-01-08T15:54:14.601Z,105.40
2023-01-08T15:56:41.206Z,102.72
2023-01-08T15:59:07.835Z,98.95
2023-01-08T16:01:34.310Z,98.47
2023-01-08T16:04:00.839Z,101.28
2023-01-08T16:06:27.248Z,95.75
2023-01-08T16:08:53.701Z,96.50
2023-01-08T16:11:20.219Z,93.72
2023-01-08T16:13:46.673Z,91.57
2023-01-08T16:16:13.525Z,93.10
2023-01-08T16:18:40.051Z,88.53
2023-01-08T16:21:06.605Z,85.43
2023-01-08T16:23:33.128Z,86.38
2023-01-08T16:25:59.610Z,83.00
2023-01-08T16:28:25.964Z,84.38
2023-01-08T16:30:52.350Z,81.25
2023-01-08T16:33:18.723Z,78.85
2023-01-08T16:35:45.717Z,80.47
2023-01-08T16:38:12.147Z,78.13
2023-01-08T16:40:38.879Z,74.53
2023-01-08T16:43:05.300Z,75.60
2023-01-08T16:45:31.721Z,74.95
2023-01-08T16:47:58.103Z,72.15
2023-01-08T16:50:24.477Z,70.43
2023-01-08T16:52:51.574Z,72.28
2023-01-08T16:55:18.222Z,68.70
2023-01-08T16:57:44.607Z,69.45
2023-01-08T17:00:11.395Z,68.78
2023-01-08T17:02:38.174Z,63.22
2023-01-08T17:05:04.677Z,63.83
2023-01-08T17:07:31.588Z,64.05
2023-01-08T17:09:58.006Z,63.50
2023-01-08T17:12:24.523Z,63.53
2023-01-08T17:14:51.626Z,60.25
2023-01-08T17:17:18.200Z,62.55
2023-01-08T17:19:44.644Z,60.42
2023-01-08T17:22:10.993Z,57.58
2023-01-08T17:24:38.093Z,56.15
2023-01-08T17:27:04.805Z,56.28
2023-01-08T17:29:31.195Z,54.97
2023-01-08T17:31:57.787Z,54.03
2023-01-08T17:34:24.432Z,52.35
2023-01-08T17:36:50.845Z,53.53
2023-01-08T17:39:17.505Z,52.83
2023-01-08T17:41:44.181Z,50.92
2023-01-08T17:44:10.861Z,50.33
2023-01-08T17:46:37.284Z,50.10
2023-01-08T17:49:04.168Z,49.95
2023-01-08T17:51:31.086Z,49.80
2023-01-08T17:53:57.528Z,49.25
2023-01-08T17:56:24.192Z,49.80
2023-01-08T17:58:51.035Z,46.92
2023-01-08T18:01:17.611Z,45.75
2023-01-08T18:03:44.195Z,46.35
2023-01-08T18:06:10.956Z,44.28
2023-01-08T18:08:37.697Z,43.65
2023-01-08T18:11:04.180Z,43.72
2023-01-08T18:13:30.918Z,41.60
2023-01-08T18:15:58.209Z,41.53
2023-01-08T18:18:24.926Z,41.53
2023-01-08T18:20:53.872Z,42.35
2023-01-08T18:23:20.693Z,39.83
2023-01-08T18:25:47.445Z,42.20
2023-01-08T18:28:13.818Z,38.90
2023-01-08T18:30:40.508Z,39.53
2023-01-08T18:33:07.333Z,38.22
2023-01-08T18:35:33.684Z,38.33
2023-01-08T18:38:00.125Z,37.35
2023-01-08T18:40:26.860Z,38.15
2023-01-08T18:42:53.407Z,37.30
2023-01-08T18:45:19.899Z,38.53
2023-01-08T18:47:46.594Z,36.60
2023-01-08T18:50:13.086Z,36.65
2023-01-08T18:52:40.093Z,37.63
2023-01-08T18:55:07.058Z,35.22
2023-01-08T18:57:33.754Z,35.30
2023-01-08T19:00:00.355Z,33.42
2023-01-08T19:02:26.959Z,32.88
2023-01-08T19:04:53.579Z,33.33
2023-01-08T19:07:20.315Z,32.78
2023-01-08T19:09:47.209Z,33.45
2023-01-08T19:12:13.909Z,34.13
2023-01-08T19:14:40.942Z,32.85
2023-01-08T19:17:07.350Z,31.45
2023-01-08T19:19:34.827Z,30.92
2023-01-08T19:22:01.250Z,31.95
2023-01-08T19:24:27.610Z,30.65
2023-01-08T19:26:54.249Z,30.67
2023-01-08T19:29:20.630Z,30.80
2023-01-08T19:31:47.524Z,29.77
2023-01-08T19:34:14.104Z,28.38
2023-01-08T19:36:43.625Z,31.25
2023-01-08T19:39:10.346Z,31.55
2023-01-08T19:41:36.683Z,27.48
2023-01-08T19:44:03.950Z,28.77
2023-01-08T19:46:30.550Z,27.95
2023-01-08T19:48:57.098Z,28.42
2023-01-08T19:51:23.870Z,27.58
2023-01-08T19:53:50.434Z,27.05
2023-01-08T19:56:17.322Z,27.13
2023-01-08T19:58:43.775Z,27.65
2023-01-08T20:01:10.420Z,27.27
2023-01-08T20:03:37.263Z,27.58
2023-01-08T20:06:03.718Z,25.75
2023-01-08T20:08:30.110Z,25.55
2023-01-08T20:10:57.103Z,27.05
2023-01-08T20:13:23.486Z,26.60
2023-01-08T20:15:50.548Z,26.10
2023-01-08T20:18:17.267Z,23.95
2023-01-08T20:20:44.216Z,24.50
2023-01-08T20:23:10.640Z,24.42
2023-01-08T20:25:37.095Z,25.25
2023-01-08T20:28:03.921Z,25.35
2023-01-08T20:30:30.313Z,24.13
2023-01-08T20:32:57.206Z,24.67
2023-01-08T20:35:24.111Z,24.55
2023-01-08T20:37:50.980Z,23.45
2023-01-08T20:40:17.446Z,22.98
2023-01-08T20:42:44.045Z,22.83
2023-01-08T20:45:10.419Z,23.20
2023-01-08T20:47:37.022Z,22.48
2023-01-08T20:50:12.332Z,22.45
2023-01-08T20:52:45.975Z,24.20
2023-01-08T20:55:12.473Z,22.80
2023-01-08T20:57:39.639Z,22.33
2023-01-08T21:00:06.107Z,22.63
2023-01-08T21:02:32.858Z,21.60
2023-01-08T21:04:59.593Z,20.73
2023-01-08T21:07:26.028Z,23.00
2023-01-08T21:09:52.974Z,20.80
2023-01-08T21:12:19.404Z,20.73
2023-01-08T21:14:45.998Z,21.52
2023-01-08T21:17:12.478Z,20.20
2023-01-08T21:19:38.989Z,22.20
2023-01-08T21:22:05.533Z,19.80
2023-01-08T21:24:32.066Z,21.75
2023-01-08T21:26:58.569Z,20.40
2023-01-08T21:29:25.052Z,20.60
2023-01-08T21:31:51.493Z,20.05
2023-01-08T21:34:18.419Z,19.33
2023-01-08T21:36:45.262Z,18.73
2023-01-08T21:39:12.168Z,20.08
2023-01-08T21:41:38.647Z,19.98
2023-01-08T21:44:05.103Z,18.67
2023-01-08T21:46:31.807Z,18.83
2023-01-08T21:48:58.259Z,20.10
2023-01-08T21:51:25.393Z,19.65
2023-01-08T21:53:51.829Z,18.33
2023-01-08T21:56:18.473Z,19.13
2023-01-08T21:58:44.876Z,17.58
2023-01-08T22:01:11.384Z,19.05
2023-01-08T22:03:38.211Z,18.75
2023-01-08T22:06:04.634Z,19.73
2023-01-08T22:08:31.314Z,18.27
2023-01-08T22:10:57.991Z,17.73
2023-01-08T22:13:25.277Z,18.52
2023-01-08T22:15:52.378Z,17.08
2023-01-08T22:18:20.189Z,18.95
2023-01-08T22:20:46.817Z,17.02
2023-01-08T22:23:13.666Z,17.42
2023-01-08T22:25:40.076Z,17.08
2023-01-08T22:28:07.215Z,17.15
2023-01-08T22:30:34.187Z,17.00
2023-01-08T22:33:00.564Z,17.23
2023-01-08T22:35:27.650Z,16.23
2023-01-08T22:37:54.644Z,17.65
2023-01-08T22:40:21.883Z,18.58
2023-01-08T22:42:48.395Z,17.02
2023-01-08T22:45:15.148Z,16.50
2023-01-08T22:47:41.564Z,16.38
2023-01-08T22:50:08.296Z,17.13
2023-01-08T22:52:35.165Z,16.88
2023-01-08T22:55:01.681Z,16.10
2023-01-08T22:57:28.559Z,15.35
2023-01-08T22:59:55.018Z,16.48
2023-01-08T23:02:21.800Z,15.40
2023-01-08T23:04:48.293Z,15.85
2023-01-08T23:07:14.814Z,16.25
2023-01-08T23:09:41.435Z,17.48
2023-01-08T23:12:07.863Z,16.67
2023-01-08T23:14:34.755Z,15.77
2023-01-08T23:17:01.356Z,15.15
2023-01-08T23:19:28.342Z,17.77
2023-01-08T23:21:55.250Z,16.08
2023-01-08T23:24:21.623Z,15.98
2023-01-08T23:26:48.304Z,15.10
2023-01-08T23:29:14.911Z,15.38
2023-01-08T23:31:41.366Z,14.75
2023-01-08T23:34:08.837Z,15.55
2023-01-08T23:36:35.325Z,16.08
2023-01-08T23:39:01.795Z,15.82
2023-01-08T23:41:28.287Z,17.48
2023-01-08T23:43:54.866Z,16.05
2023-01-08T23:46:21.579Z,15.50
2023-01-08T23:48:48.232Z,14.90
2023-01-08T23:51:14.604Z,15.93
2023-01-08T23:53:41.274Z,14.90
2023-01-08T23:56:07.628Z,14.65
2023-01-08T23:58:34.075Z,15.02
